createdAt,value
2019-01-15T00:02:19.972Z,10.42
2019-01-15T00:04:48.261Z,9.97
2019-01-15T00:07:16.522Z,10.18
2019-01-15T00:09:44.798Z,10.10
2019-01-15T00:12:14.627Z,9.23
2019-01-15T00:14:42.880Z,9.76
2019-01-15T00:17:11.222Z,9.66
2019-01-15T00:19:39.503Z,9.95
2019-01-15T00:22:07.778Z,9.44
2019-01-15T00:24:36.037Z,9.29
2019-01-15T00:27:04.373Z,9.70
2019-01-15T00:29:32.696Z,9.42
2019-01-15T00:32:00.927Z,10.45
2019-01-15T00:34:29.222Z,9.24
2019-01-15T00:36:57.493Z,9.46
2019-01-15T00:39:25.743Z,9.65
2019-01-15T00:41:54.094Z,9.88
2019-01-15T00:44:22.719Z,9.73
2019-01-15T00:46:51.003Z,9.74
2019-01-15T00:49:19.328Z,10.12
2019-01-15T00:51:47.610Z,9.92
2019-01-15T00:54:15.878Z,10.72
2019-01-15T00:56:44.133Z,10.26
2019-01-15T00:59:12.393Z,10.32
2019-01-15T01:01:40.672Z,9.95
2019-01-15T01:04:08.930Z,9.94
2019-01-15T01:06:37.192Z,10.59
2019-01-15T01:09:09.516Z,10.20
2019-01-15T01:11:37.840Z,10.63
2019-01-15T01:14:06.132Z,10.62
2019-01-15T01:16:34.383Z,10.32
2019-01-15T01:19:02.659Z,10.79
2019-01-15T01:21:30.915Z,10.14
2019-01-15T01:23:59.271Z,10.39
2019-01-15T01:26:27.518Z,11.09
2019-01-15T01:28:55.798Z,11.18
2019-01-15T01:31:24.077Z,10.71
2019-01-15T01:33:52.347Z,10.78
2019-01-15T01:36:20.628Z,10.64
2019-01-15T01:38:48.904Z,10.25
2019-01-15T01:41:17.196Z,9.84
2019-01-15T01:43:45.459Z,10.26
2019-01-15T01:46:13.725Z,10.39
2019-01-15T01:48:42.021Z,10.96
2019-01-15T01:51:10.286Z,10.93
2019-01-15T01:53:38.558Z,10.25
2019-01-15T01:56:06.908Z,10.55
2019-01-15T01:58:35.173Z,9.78
2019-01-15T02:01:03.450Z,9.27
2019-01-15T02:03:31.772Z,10.93
2019-01-15T02:06:00.130Z,10.09
2019-01-15T02:08:28.393Z,10.21
2019-01-15T02:10:56.672Z,10.33
2019-01-15T02:13:24.946Z,10.49
2019-01-15T02:15:53.213Z,10.42
2019-01-15T02:18:21.470Z,9.78
2019-01-15T02:20:49.743Z,9.76
2019-01-15T02:23:18.027Z,10.14
2019-01-15T02:25:46.300Z,10.01
2019-01-15T02:28:14.568Z,10.08
2019-01-15T02:30:42.879Z,8.92
2019-01-15T02:33:11.116Z,9.26
2019-01-15T02:35:39.448Z,9.27
2019-01-15T02:38:07.714Z,8.96
2019-01-15T02:40:35.980Z,9.13
2019-01-15T02:43:04.227Z,9.19
2019-01-15T02:45:32.502Z,9.01
2019-01-15T02:48:00.755Z,9.41
2019-01-15T02:50:29.016Z,9.18
2019-01-15T02:52:57.287Z,9.01
2019-01-15T02:55:25.598Z,9.12
2019-01-15T02:57:53.840Z,9.00
2019-01-15T03:00:23.935Z,9.24
2019-01-15T03:02:52.292Z,9.11
2019-01-15T03:05:20.687Z,8.62
2019-01-15T03:07:48.984Z,9.61
2019-01-15T03:10:19.402Z,8.94
2019-01-15T03:12:55.429Z,9.10
2019-01-15T03:15:21.896Z,9.40
2019-01-15T03:17:50.168Z,9.53
2019-01-15T03:20:18.555Z,9.27
2019-01-15T03:22:46.888Z,9.16
2019-01-15T03:25:15.608Z,9.77
2019-01-15T03:27:44.509Z,9.72
2019-01-15T03:30:15.985Z,9.48
2019-01-15T03:32:44.238Z,9.34
2019-01-15T03:35:12.575Z,9.69
2019-01-15T03:37:40.842Z,10.09
2019-01-15T03:40:23.314Z,9.60
2019-01-15T03:42:51.654Z,9.73
2019-01-15T03:45:20.318Z,9.55
2019-01-15T03:47:48.622Z,9.38
2019-01-15T03:50:17.531Z,9.51
2019-01-15T03:52:45.849Z,8.89
2019-01-15T03:55:16.621Z,8.65
2019-01-15T03:57:44.952Z,8.56
2019-01-15T04:00:21.508Z,9.74
2019-01-15T04:02:49.851Z,9.72
2019-01-15T04:05:18.209Z,8.57
2019-01-15T04:07:48.484Z,8.28
2019-01-15T04:10:16.763Z,8.47
2019-01-15T04:12:45.173Z,8.76
2019-01-15T04:15:14.184Z,9.32
2019-01-15T04:17:42.548Z,9.44
2019-01-15T04:20:17.726Z,9.27
2019-01-15T04:22:46.070Z,8.91
2019-01-15T04:25:15.682Z,8.87
2019-01-15T04:27:44.006Z,9.34
2019-01-15T04:30:15.450Z,9.05
2019-01-15T04:32:43.701Z,8.57
2019-01-15T04:35:12.053Z,7.93
2019-01-15T04:37:40.462Z,7.87
2019-01-15T04:40:14.868Z,8.21
2019-01-15T04:42:43.120Z,8.57
2019-01-15T04:45:14.141Z,8.03
2019-01-15T04:47:42.421Z,8.28
2019-01-15T04:50:10.921Z,8.29
2019-01-15T04:52:41.055Z,7.88
2019-01-15T04:55:11.165Z,7.78
2019-01-15T04:57:39.424Z,7.78
2019-01-15T05:00:11.162Z,8.16
2019-01-15T05:02:40.287Z,7.49
2019-01-15T05:05:09.088Z,7.72
2019-01-15T05:07:37.362Z,8.09
2019-01-15T05:10:09.047Z,7.70
2019-01-15T05:12:37.326Z,7.66
2019-01-15T05:15:08.745Z,7.51
2019-01-15T05:17:36.996Z,7.46
2019-01-15T05:20:11.230Z,7.85
2019-01-15T05:22:39.494Z,7.79
2019-01-15T05:25:19.439Z,7.97
2019-01-15T05:27:47.794Z,7.88
2019-01-15T05:30:21.995Z,8.43
2019-01-15T05:32:50.336Z,7.77
2019-01-15T05:35:18.628Z,7.78
2019-01-15T05:37:46.904Z,7.63
2019-01-15T05:40:16.055Z,8.11
2019-01-15T05:42:44.321Z,8.53
2019-01-15T05:45:16.786Z,7.25
2019-01-15T05:47:45.223Z,7.45
2019-01-15T05:50:15.208Z,7.23
2019-01-15T05:52:43.472Z,7.63
2019-01-15T05:55:11.798Z,7.15
2019-01-15T05:57:40.098Z,6.83
2019-01-15T06:00:16.202Z,7.40
2019-01-15T06:02:44.489Z,7.10
2019-01-15T06:05:13.510Z,6.77
2019-01-15T06:07:41.768Z,7.17
2019-01-15T06:10:15.664Z,7.30
2019-01-15T06:12:43.956Z,7.18
2019-01-15T06:15:16.395Z,7.42
2019-01-15T06:17:44.735Z,7.49
2019-01-15T06:20:20.353Z,7.21
2019-01-15T06:22:48.792Z,7.71
2019-01-15T06:25:17.418Z,7.59
2019-01-15T06:27:45.859Z,8.29
2019-01-15T06:30:16.463Z,8.10
2019-01-15T06:32:44.745Z,7.27
2019-01-15T06:35:13.044Z,7.57
2019-01-15T06:37:41.303Z,7.70
2019-01-15T06:40:15.442Z,7.73
2019-01-15T06:42:43.700Z,7.47
2019-01-15T06:45:15.265Z,7.39
2019-01-15T06:47:43.592Z,7.26
2019-01-15T06:50:13.801Z,7.28
2019-01-15T06:52:42.120Z,7.32
2019-01-15T06:55:16.377Z,6.91
2019-01-15T06:57:44.925Z,6.98
2019-01-15T07:00:21.403Z,7.27
2019-01-15T07:02:49.914Z,7.12
2019-01-15T07:05:18.240Z,6.36
2019-01-15T07:07:46.590Z,6.95
2019-01-15T07:10:18.003Z,6.69
2019-01-15T07:12:46.259Z,7.03
2019-01-15T07:15:14.666Z,6.99
2019-01-15T07:17:43.015Z,7.84
2019-01-15T07:20:14.419Z,7.69
2019-01-15T07:22:42.654Z,7.73
2019-01-15T07:25:13.697Z,7.67
2019-01-15T07:27:41.963Z,7.90
2019-01-15T07:30:18.928Z,7.53
2019-01-15T07:32:47.199Z,7.81
2019-01-15T07:35:15.459Z,7.79
2019-01-15T07:37:43.784Z,7.58
2019-01-15T07:40:13.506Z,7.46
2019-01-15T07:42:42.655Z,7.43
2019-01-15T07:45:13.275Z,7.35
2019-01-15T07:47:41.598Z,6.93
2019-01-15T07:50:15.565Z,7.78
2019-01-15T07:52:44.392Z,8.07
2019-01-15T07:55:17.683Z,7.97
2019-01-15T07:57:45.948Z,7.52
2019-01-15T08:00:19.738Z,7.59
2019-01-15T08:02:48.444Z,7.90
2019-01-15T08:05:19.136Z,7.79
2019-01-15T08:07:47.500Z,7.70
2019-01-15T08:10:21.366Z,7.44
2019-01-15T08:12:49.749Z,7.72
2019-01-15T08:15:20.777Z,7.69
2019-01-15T08:17:49.165Z,7.21
2019-01-15T08:20:17.515Z,7.26
2019-01-15T08:22:45.954Z,7.60
2019-01-15T08:25:15.965Z,7.96
2019-01-15T08:27:44.385Z,7.88
2019-01-15T08:30:21.191Z,8.05
2019-01-15T08:32:49.468Z,8.33
2019-01-15T08:35:18.163Z,8.56
2019-01-15T08:37:46.427Z,8.70
2019-01-15T08:40:16.722Z,8.36
2019-01-15T08:42:48.088Z,8.27
2019-01-15T08:45:20.043Z,8.13
2019-01-15T08:47:53.044Z,8.60
2019-01-15T08:50:31.561Z,8.54
2019-01-15T08:52:59.923Z,8.34
2019-01-15T08:55:28.179Z,7.82
2019-01-15T08:57:56.513Z,7.83
2019-01-15T09:00:24.844Z,8.40
2019-01-15T09:02:53.127Z,8.11
2019-01-15T09:05:21.437Z,7.83
2019-01-15T09:07:49.739Z,7.90
2019-01-15T09:10:18.810Z,8.28
2019-01-15T09:12:47.351Z,8.07
2019-01-15T09:15:20.891Z,8.40
2019-01-15T09:17:49.149Z,8.47
2019-01-15T09:20:19.460Z,8.57
2019-01-15T09:22:47.791Z,7.69
2019-01-15T09:25:16.139Z,8.58
2019-01-15T09:27:44.483Z,8.60
2019-01-15T09:30:18.105Z,8.07
2019-01-15T09:32:46.464Z,8.62
2019-01-15T09:35:14.913Z,8.08
2019-01-15T09:37:44.009Z,8.37
2019-01-15T09:40:15.424Z,8.61
2019-01-15T09:42:43.678Z,8.70
2019-01-15T09:45:14.505Z,8.07
2019-01-15T09:47:47.318Z,8.74
2019-01-15T09:50:15.659Z,8.57
2019-01-15T09:52:43.977Z,7.69
2019-01-15T09:55:12.371Z,8.28
2019-01-15T09:57:40.690Z,8.01
2019-01-15T10:00:12.148Z,8.16
2019-01-15T10:02:40.426Z,8.06
2019-01-15T10:05:08.679Z,8.00
2019-01-15T10:07:36.963Z,8.33
2019-01-15T10:10:11.008Z,8.29
2019-01-15T10:12:39.297Z,8.73
2019-01-15T10:15:13.607Z,8.57
2019-01-15T10:17:41.887Z,8.95
2019-01-15T10:20:12.500Z,9.43
2019-01-15T10:22:40.757Z,8.90
2019-01-15T10:25:11.251Z,9.32
2019-01-15T10:27:39.798Z,8.95
2019-01-15T10:30:18.868Z,9.38
2019-01-15T10:32:52.973Z,8.81
2019-01-15T10:35:27.242Z,9.28
2019-01-15T10:37:55.499Z,8.96
2019-01-15T10:40:23.783Z,8.99
2019-01-15T10:42:52.065Z,8.83
2019-01-15T10:45:20.453Z,9.16
2019-01-15T10:47:48.738Z,9.24
2019-01-15T10:50:17.048Z,9.16
2019-01-15T10:52:45.332Z,9.10
2019-01-15T10:55:13.667Z,9.59
2019-01-15T10:57:41.949Z,8.87
2019-01-15T11:00:13.013Z,10.02
2019-01-15T11:02:41.363Z,10.41
2019-01-15T11:05:11.684Z,9.97
2019-01-15T11:07:39.963Z,9.47
2019-01-15T11:10:16.789Z,9.31
2019-01-15T11:12:45.046Z,9.76
2019-01-15T11:15:13.393Z,9.61
2019-01-15T11:17:41.661Z,10.15
2019-01-15T11:20:18.414Z,10.74
2019-01-15T11:22:46.692Z,10.10
2019-01-15T11:25:15.226Z,10.37
2019-01-15T11:27:43.477Z,9.81
2019-01-15T11:30:13.959Z,9.77
2019-01-15T11:32:42.271Z,9.66
2019-01-15T11:35:11.973Z,10.38
2019-01-15T11:37:40.261Z,9.77
2019-01-15T11:40:13.487Z,9.98
2019-01-15T11:42:41.770Z,9.39
2019-01-15T11:45:12.865Z,9.51
2019-01-15T11:47:41.141Z,10.43
2019-01-15T11:50:12.902Z,10.67
2019-01-15T11:52:41.182Z,10.10
2019-01-15T11:55:09.517Z,10.43
2019-01-15T11:57:37.811Z,10.19
2019-01-15T12:00:19.525Z,10.10
2019-01-15T12:02:49.562Z,10.11
2019-01-15T12:05:26.104Z,10.21
2019-01-15T12:08:14.114Z,10.18
2019-01-15T12:13:28.496Z,10.93
2019-01-15T12:16:14.796Z,10.99
2019-01-15T12:18:47.355Z,11.20
2019-01-15T12:21:17.289Z,10.73
2019-01-15T12:23:50.025Z,10.53
2019-01-15T12:26:19.943Z,11.19
2019-01-15T12:28:49.864Z,11.11
2019-01-15T12:31:22.709Z,11.80
2019-01-15T12:33:52.630Z,11.73
2019-01-15T12:36:25.077Z,10.18
2019-01-15T12:39:11.163Z,10.45
2019-01-15T12:41:50.047Z,10.82
2019-01-15T12:44:22.608Z,10.44
2019-01-15T12:46:55.506Z,10.73
2019-01-15T12:49:28.184Z,11.22
2019-01-15T12:52:03.829Z,10.77
2019-01-15T12:54:36.436Z,11.34
2019-01-15T12:57:19.155Z,10.77
2019-01-15T12:59:51.782Z,11.09
2019-01-15T13:02:21.774Z,10.92
2019-01-15T13:04:51.608Z,10.42
2019-01-15T13:07:21.627Z,10.96
2019-01-15T13:10:00.239Z,10.68
2019-01-15T13:12:30.128Z,9.98
2019-01-15T13:15:02.968Z,10.54
2019-01-15T13:17:38.369Z,10.53
2019-01-15T13:20:13.483Z,10.44
2019-01-15T13:22:43.409Z,10.14
2019-01-15T13:25:22.289Z,10.17
2019-01-15T13:27:57.969Z,10.91
2019-01-15T13:30:27.895Z,10.71
2019-01-15T13:33:13.693Z,10.85
2019-01-15T13:36:00.032Z,11.23
2019-01-15T13:38:38.930Z,10.51
2019-01-15T13:41:14.391Z,10.54
2019-01-15T13:43:50.126Z,10.85
2019-01-15T13:46:37.516Z,10.76
2019-01-15T13:49:07.699Z,10.72
2019-01-15T13:51:37.635Z,10.47
2019-01-15T13:54:13.668Z,10.71
2019-01-15T13:56:46.255Z,10.59
2019-01-15T13:59:16.124Z,10.67
2019-01-15T14:01:55.054Z,10.78
2019-01-15T14:04:37.250Z,10.53
2019-01-15T14:07:13.128Z,10.73
2019-01-15T14:09:43.054Z,10.02
2019-01-15T14:12:29.158Z,10.25
2019-01-15T14:15:01.910Z,10.50
2019-01-15T14:17:31.834Z,9.92
2019-01-15T14:20:13.724Z,10.61
2019-01-15T14:22:52.603Z,11.20
2019-01-15T14:25:28.496Z,10.78
2019-01-15T14:28:04.416Z,10.56
2019-01-15T14:30:43.420Z,10.70
2019-01-15T14:33:29.578Z,11.44
2019-01-15T14:36:15.774Z,10.82
2019-01-15T14:41:56.343Z,10.64
2019-01-15T14:44:26.286Z,10.75
2019-01-15T14:47:12.609Z,10.18
2019-01-15T14:49:58.734Z,10.68
2019-01-15T14:52:32.641Z,10.70
2019-01-15T14:55:20.942Z,11.11
2019-01-15T14:57:53.485Z,10.83
2019-01-15T15:00:32.414Z,11.02
2019-01-15T15:03:07.792Z,11.60
2019-01-15T15:05:37.794Z,11.27
2019-01-15T15:08:07.791Z,11.50
2019-01-15T15:10:53.768Z,10.78
2019-01-15T15:13:23.670Z,10.45
2019-01-15T15:16:03.605Z,10.97
2019-01-15T15:18:31.478Z,10.49
2019-01-15T15:21:16.191Z,10.82
2019-01-15T15:23:54.829Z,10.57
2019-01-15T15:26:36.715Z,11.05
2019-01-15T15:29:18.786Z,10.93
2019-01-15T15:31:51.739Z,10.82
2019-01-15T15:34:21.690Z,11.19
2019-01-15T15:37:07.435Z,10.85
2019-01-15T15:39:39.822Z,10.68
2019-01-15T15:42:09.861Z,10.69
2019-01-15T15:44:51.797Z,10.76
2019-01-15T15:47:38.232Z,10.64
2019-01-15T15:50:26.291Z,11.30
2019-01-15T15:53:07.901Z,10.77
2019-01-15T15:55:53.950Z,10.72
2019-01-15T15:58:26.590Z,10.71
2019-01-15T16:01:02.201Z,10.72
2019-01-15T16:03:37.771Z,10.53
2019-01-15T16:06:10.741Z,10.93
2019-01-15T16:08:40.676Z,10.94
2019-01-15T16:11:22.104Z,10.86
2019-01-15T16:14:01.505Z,10.54
2019-01-15T16:16:31.449Z,11.11
2019-01-15T16:19:09.879Z,11.09
2019-01-15T16:21:45.299Z,10.95
2019-01-15T16:24:18.189Z,11.01
2019-01-15T16:27:04.048Z,11.19
2019-01-15T16:29:39.814Z,11.02
2019-01-15T16:32:09.745Z,11.20
2019-01-15T16:37:31.520Z,11.13
2019-01-15T16:40:19.921Z,11.37
2019-01-15T16:43:05.935Z,11.51
2019-01-15T16:45:41.624Z,11.21
2019-01-15T16:48:27.884Z,10.99
2019-01-15T16:51:09.785Z,11.43
2019-01-15T16:53:45.188Z,11.11
2019-01-15T16:56:31.191Z,11.26
2019-01-15T16:59:04.006Z,11.12
2019-01-15T17:01:49.160Z,10.49
2019-01-15T17:04:31.007Z,10.64
2019-01-15T17:07:09.671Z,11.14
2019-01-15T17:09:39.570Z,10.56
2019-01-15T17:12:25.449Z,10.35
2019-01-15T17:15:11.351Z,10.44
2019-01-15T17:17:50.194Z,10.39
2019-01-15T17:20:29.303Z,11.61
2019-01-15T17:23:08.202Z,10.68
2019-01-15T17:25:54.632Z,11.15
2019-01-15T17:28:24.558Z,10.73
2019-01-15T17:30:57.166Z,10.59
2019-01-15T17:33:30.052Z,10.45
2019-01-15T17:36:14.902Z,10.96
2019-01-15T17:38:44.830Z,10.23
2019-01-15T17:41:20.811Z,11.05
2019-01-15T17:43:53.414Z,10.69
2019-01-15T17:46:41.507Z,10.61
2019-01-15T17:49:11.435Z,10.47
2019-01-15T17:51:53.370Z,10.99
2019-01-15T17:54:23.286Z,11.14
2019-01-15T17:56:59.344Z,11.21
2019-01-15T17:59:34.818Z,10.43
2019-01-15T18:02:07.658Z,11.03
2019-01-15T18:04:43.752Z,11.57
2019-01-15T18:07:28.345Z,12.30
2019-01-15T18:10:00.938Z,12.25
2019-01-15T18:12:46.986Z,11.76
2019-01-15T18:15:16.941Z,10.82
2019-01-15T18:17:52.527Z,11.10
2019-01-15T18:20:25.440Z,11.70
2019-01-15T18:23:01.081Z,10.97
2019-01-15T18:25:31.082Z,11.38
2019-01-15T18:28:19.040Z,11.48
2019-01-15T18:30:48.949Z,11.54
2019-01-15T18:33:31.027Z,11.79
2019-01-15T18:36:00.987Z,10.81
2019-01-15T18:38:49.069Z,11.59
2019-01-15T18:41:36.457Z,11.66
2019-01-15T18:44:18.341Z,11.50
2019-01-15T18:46:55.799Z,11.73
2019-01-15T18:49:41.598Z,12.08
2019-01-15T18:52:27.535Z,11.65
2019-01-15T18:55:13.650Z,12.05
2019-01-15T18:58:00.136Z,11.34
2019-01-15T19:00:46.228Z,11.20
2019-01-15T19:03:32.391Z,11.07
2019-01-15T19:06:08.497Z,11.01
2019-01-15T19:08:54.269Z,10.59
2019-01-15T19:11:32.177Z,10.41
2019-01-15T19:14:10.686Z,10.38
2019-01-15T19:16:52.633Z,10.67
2019-01-15T19:19:22.578Z,10.42
2019-01-15T19:21:54.922Z,10.24
2019-01-15T19:24:36.475Z,10.03
2019-01-15T19:27:06.454Z,10.08
2019-01-15T19:29:45.437Z,9.92
2019-01-15T19:32:31.626Z,10.26
2019-01-15T19:35:01.560Z,10.35
2019-01-15T19:37:36.361Z,10.53
2019-01-15T19:40:09.347Z,10.08
2019-01-15T19:42:39.272Z,9.93
2019-01-15T19:45:12.095Z,9.94
2019-01-15T19:47:51.291Z,9.48
2019-01-15T19:50:33.006Z,9.83
2019-01-15T19:53:18.125Z,9.47
2019-01-15T19:55:48.124Z,10.47
2019-01-15T19:58:23.745Z,10.00
2019-01-15T20:00:56.652Z,10.24
2019-01-15T20:03:44.315Z,10.28
2019-01-15T20:06:17.432Z,10.61
2019-01-15T20:09:03.509Z,10.42
2019-01-15T20:11:36.398Z,9.77
2019-01-15T20:14:22.764Z,10.73
2019-01-15T20:17:07.744Z,10.49
2019-01-15T20:19:53.841Z,10.72
2019-01-15T20:22:40.136Z,10.43
2019-01-15T20:25:25.275Z,10.44
2019-01-15T20:27:57.928Z,10.19
2019-01-15T20:30:39.966Z,10.84
2019-01-15T20:33:14.208Z,10.70
2019-01-15T20:36:00.604Z,10.48
2019-01-15T20:38:45.261Z,10.19
2019-01-15T20:41:24.086Z,10.28
2019-01-15T20:44:12.343Z,10.51
2019-01-15T20:46:58.277Z,10.28
2019-01-15T20:49:31.125Z,10.18
2019-01-15T20:52:02.689Z,9.82
2019-01-15T20:54:34.967Z,10.07
2019-01-15T20:57:13.785Z,10.23
2019-01-15T20:59:46.897Z,10.30
2019-01-15T21:02:19.474Z,10.74
2019-01-15T21:05:01.391Z,10.44
2019-01-15T21:07:34.042Z,9.82
2019-01-15T21:10:31.740Z,10.26
2019-01-15T21:13:23.966Z,10.51
2019-01-15T21:16:07.792Z,9.89
2019-01-15T21:18:46.869Z,10.19
2019-01-15T21:21:16.821Z,10.52
2019-01-15T21:23:46.735Z,10.15
2019-01-15T21:26:16.769Z,10.14
2019-01-15T21:28:46.692Z,10.26
2019-01-15T21:31:20.193Z,10.06
2019-01-15T21:33:55.902Z,10.00
2019-01-15T21:36:31.630Z,9.93
2019-01-15T21:39:17.972Z,9.78
2019-01-15T21:42:04.139Z,10.05
2019-01-15T21:44:34.073Z,10.14
2019-01-15T21:47:09.497Z,9.91
2019-01-15T21:49:42.198Z,9.99
2019-01-15T21:52:12.129Z,9.71
2019-01-15T21:54:47.749Z,10.12
2019-01-15T21:57:17.673Z,9.80
2019-01-15T21:59:53.819Z,9.65
2019-01-15T22:02:38.547Z,9.81
2019-01-15T22:05:22.122Z,10.05
2019-01-15T22:07:57.906Z,10.00
2019-01-15T22:10:27.824Z,9.83
2019-01-15T22:12:57.758Z,10.41
2019-01-15T22:15:30.403Z,10.45
2019-01-15T22:18:12.307Z,10.68
2019-01-15T22:20:58.256Z,10.71
2019-01-15T22:23:44.437Z,10.67
2019-01-15T22:26:17.084Z,10.50
2019-01-15T22:28:47.003Z,9.94
2019-01-15T22:31:34.904Z,9.69
2019-01-15T22:34:20.922Z,10.06
2019-01-15T22:36:56.561Z,10.25
2019-01-15T22:39:28.983Z,9.66
2019-01-15T22:42:13.866Z,10.26
2019-01-15T22:44:59.753Z,10.12
2019-01-15T22:47:41.185Z,9.65
2019-01-15T22:50:35.737Z,10.00
2019-01-15T22:53:20.712Z,10.06
2019-01-15T22:55:53.556Z,10.19
2019-01-15T22:58:26.063Z,10.14
2019-01-15T23:01:12.024Z,9.85
2019-01-15T23:03:58.298Z,10.02
2019-01-15T23:06:37.116Z,10.00
2019-01-15T23:09:25.881Z,10.14
2019-01-15T23:11:55.811Z,10.02
2019-01-15T23:14:25.755Z,10.09
2019-01-15T23:17:04.717Z,10.06
2019-01-15T23:19:37.338Z,10.15
2019-01-15T23:22:25.012Z,10.07
2019-01-15T23:24:54.986Z,10.40
2019-01-15T23:27:27.814Z,10.13
2019-01-15T23:30:03.438Z,9.95
2019-01-15T23:32:33.366Z,10.21
2019-01-15T23:35:16.379Z,10.35
2019-01-15T23:38:02.680Z,10.03
2019-01-15T23:40:35.841Z,10.05
2019-01-15T23:43:08.623Z,10.15
2019-01-15T23:45:50.638Z,9.93
2019-01-15T23:48:26.539Z,9.79
2019-01-15T23:51:12.998Z,9.77
2019-01-15T23:53:45.609Z,10.17
2019-01-15T23:56:21.010Z,10.20
2019-01-15T23:58:50.927Z,10.00
